createdAt,value
2023-08-11T00:00:22.671Z,15.62
2023-08-11T00:00:54.821Z,15.58
2023-08-11T00:01:26.853Z,15.60
2023-08-11T00:01:58.778Z,15.59
2023-08-11T00:02:31.061Z,15.61
2023-08-11T00:03:03.238Z,15.60
2023-08-11T00:03:35.679Z,15.59
2023-08-11T00:04:07.763Z,15.57
2023-08-11T00:04:39.676Z,15.55
2023-08-11T00:05:12.661Z,15.54
2023-08-11T00:05:44.610Z,15.58
2023-08-11T00:06:17.660Z,15.57
2023-08-11T00:06:49.680Z,15.61
2023-08-11T00:07:21.586Z,15.60
2023-08-11T00:07:55.507Z,15.58
2023-08-11T00:08:27.510Z,15.58
2023-08-11T00:09:00.302Z,15.57
2023-08-11T00:09:32.411Z,15.55
2023-08-11T00:10:06.051Z,15.54
2023-08-11T00:10:37.988Z,15.54
2023-08-11T00:11:12.542Z,15.54
2023-08-11T00:11:44.467Z,15.52
2023-08-11T00:12:16.410Z,15.52
2023-08-11T00:12:49.037Z,15.48
2023-08-11T00:13:20.970Z,15.44
2023-08-11T00:13:53.148Z,15.46
2023-08-11T00:14:25.221Z,15.46
2023-08-11T00:14:57.457Z,15.48
2023-08-11T00:15:32.188Z,15.52
2023-08-11T00:16:04.686Z,15.49
2023-08-11T00:16:36.705Z,15.47
2023-08-11T00:17:08.965Z,15.47
2023-08-11T00:17:42.111Z,15.47
2023-08-11T00:18:14.103Z,15.47
2023-08-11T00:18:46.903Z,15.42
2023-08-11T00:19:18.945Z,15.41
2023-08-11T00:19:50.895Z,15.43
2023-08-11T00:20:22.830Z,15.42
2023-08-11T00:20:54.742Z,15.45
2023-08-11T00:21:27.846Z,15.45
2023-08-11T00:21:59.836Z,15.45
2023-08-11T00:22:31.745Z,15.43
2023-08-11T00:23:07.861Z,15.41
2023-08-11T00:23:41.025Z,15.43
2023-08-11T00:24:13.010Z,15.41
2023-08-11T00:24:45.061Z,15.41
2023-08-11T00:25:17.421Z,15.40
2023-08-11T00:25:49.341Z,15.37
2023-08-11T00:26:21.268Z,15.34
2023-08-11T00:26:53.397Z,15.30
2023-08-11T00:27:25.373Z,15.31
2023-08-11T00:27:57.297Z,15.34
2023-08-11T00:28:29.253Z,15.33
2023-08-11T00:29:01.567Z,15.32
2023-08-11T00:29:33.608Z,15.35
2023-08-11T00:30:06.686Z,15.32
2023-08-11T00:30:38.597Z,15.28
2023-08-11T00:31:10.592Z,15.28
2023-08-11T00:31:43.210Z,15.26
2023-08-11T00:32:15.305Z,15.25
2023-08-11T00:32:47.383Z,15.24
2023-08-11T00:33:20.148Z,15.25
2023-08-11T00:33:53.058Z,15.28
2023-08-11T00:34:24.992Z,15.30
2023-08-11T00:34:56.918Z,15.27
2023-08-11T00:35:29.359Z,15.27
2023-08-11T00:36:01.338Z,15.26
2023-08-11T00:36:33.255Z,15.24
2023-08-11T00:37:05.659Z,15.21
2023-08-11T00:37:37.869Z,15.25
2023-08-11T00:38:09.809Z,15.27
2023-08-11T00:38:42.398Z,15.24
2023-08-11T00:39:14.485Z,15.26
2023-08-11T00:39:47.044Z,15.25
2023-08-11T00:40:19.269Z,15.26
2023-08-11T00:40:53.042Z,15.25
2023-08-11T00:41:24.980Z,15.26
2023-08-11T00:41:56.930Z,15.25
2023-08-11T00:42:28.851Z,15.19
2023-08-11T00:43:00.778Z,15.21
2023-08-11T00:43:32.959Z,15.23
2023-08-11T00:44:05.219Z,15.24
2023-08-11T00:44:37.121Z,15.22
2023-08-11T00:45:10.167Z,15.23
2023-08-11T00:45:46.396Z,15.19
2023-08-11T00:46:21.649Z,15.24
2023-08-11T00:46:54.254Z,15.24
2023-08-11T00:47:27.193Z,15.24
2023-08-11T00:47:59.152Z,15.24
2023-08-11T00:48:31.147Z,15.22
2023-08-11T00:49:03.095Z,15.22
2023-08-11T00:49:35.466Z,15.17
2023-08-11T00:50:08.252Z,15.16
2023-08-11T00:50:41.400Z,15.14
2023-08-11T00:51:16.051Z,15.14
2023-08-11T00:51:47.991Z,15.17
2023-08-11T00:52:20.687Z,15.17
2023-08-11T00:52:52.721Z,15.17
2023-08-11T00:53:26.033Z,15.16
2023-08-11T00:53:59.124Z,15.19
2023-08-11T00:54:31.494Z,15.19
2023-08-11T00:55:03.718Z,15.22
2023-08-11T00:55:35.720Z,15.18
2023-08-11T00:56:08.639Z,15.18
2023-08-11T00:56:45.860Z,15.19
2023-08-11T00:57:17.777Z,15.19
2023-08-11T00:57:49.722Z,15.21
2023-08-11T00:58:21.760Z,15.22
2023-08-11T00:58:54.306Z,15.20
2023-08-11T00:59:27.043Z,15.21
2023-08-11T01:00:00.779Z,15.18
2023-08-11T01:00:32.888Z,15.17
2023-08-11T01:01:05.705Z,15.18
2023-08-11T01:01:37.681Z,15.19
2023-08-11T01:02:11.718Z,15.17
2023-08-11T01:02:45.465Z,15.20
2023-08-11T01:03:18.605Z,15.20
2023-08-11T01:03:51.719Z,15.18
2023-08-11T01:04:23.671Z,15.16
2023-08-11T01:04:55.882Z,15.15
2023-08-11T01:05:32.036Z,15.16
2023-08-11T01:06:23.857Z,15.16
2023-08-11T01:07:32.974Z,15.16
2023-08-11T01:08:31.442Z,15.15
2023-08-11T01:09:13.031Z,15.16
2023-08-11T01:10:07.870Z,15.16
2023-08-11T01:10:52.575Z,15.12
2023-08-11T01:11:53.308Z,15.14
2023-08-11T01:12:58.635Z,15.14
2023-08-11T01:13:31.064Z,15.14
2023-08-11T01:14:07.691Z,15.10
2023-08-11T01:14:59.851Z,15.06
2023-08-11T01:15:36.769Z,15.03
2023-08-11T01:16:09.515Z,15.04
2023-08-11T01:16:42.076Z,15.01
2023-08-11T01:17:15.930Z,14.98
2023-08-11T01:17:49.921Z,15.00
2023-08-11T01:18:23.812Z,15.00
2023-08-11T01:18:56.254Z,14.95
2023-08-11T01:19:29.851Z,14.98
2023-08-11T01:20:02.366Z,14.94
2023-08-11T01:20:36.146Z,14.91
2023-08-11T01:21:12.172Z,14.93
2023-08-11T01:21:46.658Z,14.90
2023-08-11T01:22:21.050Z,14.91
2023-08-11T01:22:56.641Z,14.92
2023-08-11T01:23:28.708Z,14.92
2023-08-11T01:24:01.825Z,14.86
2023-08-11T01:24:33.845Z,14.84
2023-08-11T01:25:09.659Z,14.84
2023-08-11T01:25:41.942Z,14.85
2023-08-11T01:26:14.997Z,14.85
2023-08-11T01:26:47.659Z,14.88
2023-08-11T01:27:19.611Z,14.83
2023-08-11T01:27:55.465Z,14.84
2023-08-11T01:28:28.325Z,14.83
2023-08-11T01:29:01.098Z,14.82
2023-08-11T01:29:33.109Z,14.80
2023-08-11T01:30:07.809Z,14.81
2023-08-11T01:30:39.916Z,14.79
2023-08-11T01:31:12.311Z,14.79
2023-08-11T01:31:44.355Z,14.81
2023-08-11T01:32:16.565Z,14.77
2023-08-11T01:32:48.548Z,14.76
2023-08-11T01:33:20.479Z,14.75
2023-08-11T01:33:52.383Z,14.73
2023-08-11T01:34:24.351Z,14.72
2023-08-11T01:34:56.268Z,14.69
2023-08-11T01:35:39.050Z,14.67
2023-08-11T01:36:12.984Z,14.70
2023-08-11T01:36:44.974Z,14.72
2023-08-11T01:37:16.885Z,14.69
2023-08-11T01:37:49.230Z,14.68
2023-08-11T01:38:22.166Z,14.66
2023-08-11T01:38:54.209Z,14.64
2023-08-11T01:39:26.148Z,14.61
2023-08-11T01:39:58.081Z,14.64
2023-08-11T01:40:30.353Z,14.66
2023-08-11T01:41:02.265Z,14.62
2023-08-11T01:41:34.172Z,14.62
2023-08-11T01:42:07.044Z,14.59
2023-08-11T01:42:46.785Z,14.63
2023-08-11T01:43:28.386Z,14.65
2023-08-11T01:44:00.885Z,14.66
2023-08-11T01:44:34.223Z,14.68
2023-08-11T01:45:07.420Z,14.65
2023-08-11T01:45:40.088Z,14.64
2023-08-11T01:46:12.809Z,14.64
2023-08-11T01:46:46.226Z,14.62
2023-08-11T01:47:19.630Z,14.62
2023-08-11T01:47:52.367Z,14.62
2023-08-11T01:48:24.766Z,14.62
2023-08-11T01:48:57.848Z,14.62
2023-08-11T01:49:30.415Z,14.60
2023-08-11T01:50:03.795Z,14.61
2023-08-11T01:50:36.093Z,14.58
2023-08-11T01:51:08.593Z,14.57
2023-08-11T01:51:41.246Z,14.56
2023-08-11T01:52:14.157Z,14.57
2023-08-11T01:52:48.841Z,14.60
2023-08-11T01:53:20.869Z,14.61
2023-08-11T01:53:52.865Z,14.61
2023-08-11T01:54:24.866Z,14.58
2023-08-11T01:54:56.802Z,14.59
2023-08-11T01:55:30.325Z,14.59
2023-08-11T01:56:02.617Z,14.55
2023-08-11T01:56:34.568Z,14.54
2023-08-11T01:57:06.991Z,14.56
2023-08-11T01:57:48.485Z,14.57
2023-08-11T01:58:28.779Z,14.57
2023-08-11T01:59:03.580Z,14.55
2023-08-11T01:59:36.094Z,14.55
2023-08-11T02:00:14.570Z,14.58
2023-08-11T02:00:46.485Z,14.63
2023-08-11T02:01:18.425Z,14.65
2023-08-11T02:01:50.406Z,14.64
2023-08-11T02:02:22.831Z,14.67
2023-08-11T02:02:55.029Z,14.71
2023-08-11T02:03:27.239Z,14.71
2023-08-11T02:03:59.417Z,14.68
2023-08-11T02:04:31.370Z,14.71
2023-08-11T02:05:04.598Z,14.71
2023-08-11T02:05:36.515Z,14.70
2023-08-11T02:06:08.430Z,14.71
2023-08-11T02:06:40.799Z,14.70
2023-08-11T02:07:12.773Z,14.69
2023-08-11T02:07:46.155Z,14.71
2023-08-11T02:08:19.310Z,14.71
2023-08-11T02:08:51.222Z,14.70
2023-08-11T02:09:23.146Z,14.67
2023-08-11T02:09:55.788Z,14.68
2023-08-11T02:10:27.696Z,14.69
2023-08-11T02:10:59.671Z,14.71
2023-08-11T02:11:31.704Z,14.73
2023-08-11T02:12:04.034Z,14.72
2023-08-11T02:12:37.640Z,14.74
2023-08-11T02:13:10.311Z,14.70
2023-08-11T02:13:42.295Z,14.69
2023-08-11T02:14:14.207Z,14.70
2023-08-11T02:14:46.106Z,14.71
2023-08-11T02:15:18.028Z,14.74
2023-08-11T02:15:50.010Z,14.72
2023-08-11T02:16:21.986Z,14.69
2023-08-11T02:16:53.893Z,14.68
2023-08-11T02:17:25.829Z,14.67
2023-08-11T02:17:57.778Z,14.69
2023-08-11T02:18:29.904Z,14.68
2023-08-11T02:19:01.823Z,14.69
2023-08-11T02:19:33.813Z,14.68
2023-08-11T02:20:25.332Z,14.68
2023-08-11T02:20:57.578Z,14.61
2023-08-11T02:21:29.852Z,14.60
2023-08-11T02:22:01.743Z,14.63
2023-08-11T02:22:33.649Z,14.64
2023-08-11T02:23:05.559Z,14.67
2023-08-11T02:23:37.536Z,14.68
2023-08-11T02:24:09.494Z,14.69
2023-08-11T02:24:41.408Z,14.68
2023-08-11T02:25:13.628Z,14.72
2023-08-11T02:25:45.602Z,14.73
2023-08-11T02:26:17.533Z,14.74
2023-08-11T02:26:49.476Z,14.73
2023-08-11T02:27:21.433Z,14.72
2023-08-11T02:27:54.180Z,14.70
2023-08-11T02:28:26.479Z,14.69
2023-08-11T02:28:58.372Z,14.69
2023-08-11T02:29:30.317Z,14.70
2023-08-11T02:30:03.189Z,14.71
2023-08-11T02:30:35.180Z,14.69
2023-08-11T02:31:09.181Z,14.69
2023-08-11T02:31:41.122Z,14.65
2023-08-11T02:32:13.088Z,14.67
2023-08-11T02:32:47.702Z,14.64
2023-08-11T02:33:19.939Z,14.63
2023-08-11T02:33:52.056Z,14.64
2023-08-11T02:34:24.035Z,14.67
2023-08-11T02:34:56.262Z,14.68
2023-08-11T02:35:28.270Z,14.67
2023-08-11T02:36:00.176Z,14.63
2023-08-11T02:36:32.088Z,14.65
2023-08-11T02:37:04.219Z,14.64
2023-08-11T02:37:36.126Z,14.64
2023-08-11T02:38:08.257Z,14.63
2023-08-11T02:38:40.298Z,14.65
2023-08-11T02:39:12.209Z,14.66
2023-08-11T02:39:45.392Z,14.65
2023-08-11T02:40:21.438Z,14.66
2023-08-11T02:40:53.559Z,14.64
2023-08-11T02:41:27.115Z,14.60
2023-08-11T02:41:59.045Z,14.60
2023-08-11T02:42:31.191Z,14.58
2023-08-11T02:43:03.556Z,14.58
2023-08-11T02:43:38.446Z,14.60
2023-08-11T02:44:10.480Z,14.60
2023-08-11T02:44:42.389Z,14.58
2023-08-11T02:45:14.372Z,14.60
2023-08-11T02:45:47.759Z,14.58
2023-08-11T02:46:19.814Z,14.58
2023-08-11T02:46:51.779Z,14.54
2023-08-11T02:47:23.691Z,14.50
2023-08-11T02:47:55.904Z,14.52
2023-08-11T02:48:27.837Z,14.56
2023-08-11T02:48:59.744Z,14.54
2023-08-11T02:49:31.669Z,14.51
2023-08-11T02:50:06.908Z,14.55
2023-08-11T02:50:38.958Z,14.55
2023-08-11T02:51:10.897Z,14.55
2023-08-11T02:51:42.819Z,14.53
2023-08-11T02:52:14.778Z,14.54
2023-08-11T02:52:46.675Z,14.54
2023-08-11T02:53:18.569Z,14.54
2023-08-11T02:53:50.771Z,14.54
2023-08-11T02:54:22.716Z,14.56
2023-08-11T02:54:55.011Z,14.53
2023-08-11T02:55:26.968Z,14.53
2023-08-11T02:56:02.210Z,14.51
2023-08-11T02:56:34.122Z,14.51
2023-08-11T02:57:07.083Z,14.49
2023-08-11T02:57:39.045Z,14.43
2023-08-11T02:58:11.757Z,14.37
2023-08-11T02:58:44.154Z,14.39
2023-08-11T02:59:16.270Z,14.42
2023-08-11T02:59:50.413Z,14.44
2023-08-11T03:00:22.338Z,14.43
2023-08-11T03:00:54.241Z,14.43
2023-08-11T03:01:26.373Z,14.43
2023-08-11T03:01:58.332Z,14.45
2023-08-11T03:02:30.380Z,14.45
2023-08-11T03:03:02.683Z,14.45
2023-08-11T03:03:34.936Z,14.44
2023-08-11T03:04:07.329Z,14.44
2023-08-11T03:04:39.268Z,14.43
2023-08-11T03:05:11.460Z,14.38
2023-08-11T03:05:44.534Z,14.37
2023-08-11T03:06:16.450Z,14.39
2023-08-11T03:06:49.040Z,14.40
2023-08-11T03:07:20.969Z,14.42
2023-08-11T03:07:53.093Z,14.39
2023-08-11T03:08:25.615Z,14.39
2023-08-11T03:08:58.715Z,14.32
2023-08-11T03:09:30.612Z,14.28
2023-08-11T03:10:02.582Z,14.28
2023-08-11T03:10:46.674Z,14.26
2023-08-11T03:11:26.484Z,14.20
2023-08-11T03:11:58.624Z,14.17
2023-08-11T03:12:30.533Z,14.18
2023-08-11T03:13:02.436Z,14.17
2023-08-11T03:13:34.372Z,14.17
2023-08-11T03:14:06.330Z,14.21
2023-08-11T03:14:38.374Z,14.20
2023-08-11T03:15:10.553Z,14.21
2023-08-11T03:15:42.787Z,14.23
2023-08-11T03:16:14.858Z,14.22
2023-08-11T03:16:46.845Z,14.19
2023-08-11T03:17:18.754Z,14.20
2023-08-11T03:17:50.689Z,14.19
2023-08-11T03:18:22.903Z,14.16
2023-08-11T03:18:55.157Z,14.19
2023-08-11T03:19:27.051Z,14.15
2023-08-11T03:19:59.047Z,14.15
2023-08-11T03:20:30.992Z,14.14
2023-08-11T03:21:18.867Z,14.16
2023-08-11T03:21:51.519Z,14.17
2023-08-11T03:22:23.459Z,14.17
2023-08-11T03:22:55.381Z,14.16
2023-08-11T03:23:28.886Z,14.19
2023-08-11T03:24:00.916Z,14.19
2023-08-11T03:24:32.814Z,14.16
2023-08-11T03:25:05.176Z,14.17
2023-08-11T03:25:37.361Z,14.14
2023-08-11T03:26:10.721Z,14.15
2023-08-11T03:26:42.757Z,14.15
2023-08-11T03:27:16.333Z,14.11
2023-08-11T03:27:48.264Z,14.09
2023-08-11T03:28:20.191Z,14.10
2023-08-11T03:28:52.125Z,14.12
2023-08-11T03:29:24.038Z,14.11
2023-08-11T03:29:55.959Z,14.09
2023-08-11T03:30:27.867Z,14.10
2023-08-11T03:31:00.921Z,14.10
2023-08-11T03:31:33.741Z,14.05
2023-08-11T03:32:06.430Z,14.04
2023-08-11T03:32:41.902Z,14.05
2023-08-11T03:33:16.172Z,14.05
2023-08-11T03:33:50.274Z,14.06
2023-08-11T03:34:22.188Z,14.04
2023-08-11T03:34:54.585Z,14.03
2023-08-11T03:35:26.511Z,14.03
2023-08-11T03:35:58.659Z,14.05
2023-08-11T03:36:30.841Z,14.06
2023-08-11T03:37:02.904Z,14.01
2023-08-11T03:37:35.685Z,14.00
2023-08-11T03:38:07.636Z,14.04
2023-08-11T03:38:39.687Z,14.02
2023-08-11T03:39:11.629Z,14.01
2023-08-11T03:39:43.548Z,14.04
2023-08-11T03:40:18.097Z,14.02
2023-08-11T03:40:50.188Z,14.03
2023-08-11T03:41:22.100Z,14.05
2023-08-11T03:41:54.073Z,14.06
2023-08-11T03:42:26.028Z,14.08
2023-08-11T03:42:58.020Z,14.10
2023-08-11T03:43:29.933Z,14.13
2023-08-11T03:44:02.130Z,14.12
2023-08-11T03:44:34.461Z,14.09
2023-08-11T03:45:06.850Z,14.05
2023-08-11T03:45:38.842Z,14.05
2023-08-11T03:46:11.036Z,14.09
2023-08-11T03:46:43.000Z,14.09
2023-08-11T03:47:14.957Z,14.09
2023-08-11T03:47:46.964Z,14.07
2023-08-11T03:48:18.940Z,14.02
2023-08-11T03:48:50.942Z,14.01
2023-08-11T03:49:22.860Z,14.05
2023-08-11T03:49:54.786Z,14.04
2023-08-11T03:50:26.690Z,14.06
2023-08-11T03:51:02.445Z,14.09
2023-08-11T03:51:34.413Z,14.09
2023-08-11T03:52:07.068Z,14.09
2023-08-11T03:52:39.763Z,14.10
2023-08-11T03:53:11.684Z,14.11
2023-08-11T03:53:43.659Z,14.08
2023-08-11T03:54:15.591Z,14.07
2023-08-11T03:54:47.516Z,14.09
2023-08-11T03:55:19.525Z,14.09
2023-08-11T03:55:51.438Z,14.05
2023-08-11T03:56:23.436Z,14.03
2023-08-11T03:56:55.979Z,14.07
2023-08-11T03:57:27.901Z,14.08
2023-08-11T03:57:59.828Z,14.04
2023-08-11T03:58:32.153Z,14.03
2023-08-11T03:59:04.059Z,14.04
2023-08-11T03:59:36.181Z,14.04
2023-08-11T04:00:15.504Z,14.05
2023-08-11T04:00:47.539Z,14.08
2023-08-11T04:01:19.506Z,14.14
2023-08-11T04:01:51.520Z,14.17
2023-08-11T04:02:25.242Z,14.14
2023-08-11T04:02:57.186Z,14.12
2023-08-11T04:03:32.432Z,14.14
2023-08-11T04:04:04.537Z,14.12
2023-08-11T04:04:36.463Z,14.13
2023-08-11T04:05:08.578Z,14.11
2023-08-11T04:05:40.534Z,14.13
2023-08-11T04:06:12.452Z,14.12
2023-08-11T04:06:44.471Z,14.10
2023-08-11T04:07:16.377Z,14.10
2023-08-11T04:07:48.284Z,14.08
2023-08-11T04:08:21.969Z,14.14
2023-08-11T04:08:53.909Z,14.13
2023-08-11T04:09:26.369Z,14.11
2023-08-11T04:09:59.501Z,14.15
2023-08-11T04:10:31.914Z,14.19
2023-08-11T04:11:03.840Z,14.17
2023-08-11T04:11:35.778Z,14.17
2023-08-11T04:12:11.050Z,14.15
2023-08-11T04:12:43.153Z,14.18
2023-08-11T04:13:15.080Z,14.22
2023-08-11T04:13:47.037Z,14.20
2023-08-11T04:14:18.944Z,14.15
2023-08-11T04:14:50.855Z,14.14
2023-08-11T04:15:22.786Z,14.15
2023-08-11T04:15:54.705Z,14.16
2023-08-11T04:16:26.692Z,14.11
2023-08-11T04:16:58.661Z,14.13
2023-08-11T04:17:30.776Z,14.12
2023-08-11T04:18:02.747Z,14.15
2023-08-11T04:18:34.709Z,14.16
2023-08-11T04:19:06.624Z,14.17
2023-08-11T04:19:38.580Z,14.20
2023-08-11T04:20:14.937Z,14.19
2023-08-11T04:20:48.078Z,14.17
2023-08-11T04:21:19.964Z,14.14
2023-08-11T04:21:51.868Z,14.16
2023-08-11T04:22:38.064Z,14.15
2023-08-11T04:23:11.145Z,14.16
2023-08-11T04:23:43.075Z,14.18
2023-08-11T04:24:16.495Z,14.19
2023-08-11T04:24:48.398Z,14.17
2023-08-11T04:25:20.300Z,14.18
2023-08-11T04:25:52.746Z,14.17
2023-08-11T04:26:24.662Z,14.17
2023-08-11T04:26:57.110Z,14.18
2023-08-11T04:27:30.045Z,14.19
2023-08-11T04:28:03.605Z,14.20
2023-08-11T04:28:37.522Z,14.21
2023-08-11T04:29:09.425Z,14.23
2023-08-11T04:29:41.320Z,14.20
2023-08-11T04:30:13.888Z,14.22
2023-08-11T04:30:48.963Z,14.21
2023-08-11T04:31:20.936Z,14.26
2023-08-11T04:31:53.209Z,14.25
2023-08-11T04:32:25.121Z,14.24
2023-08-11T04:32:57.093Z,14.25
2023-08-11T04:33:31.275Z,14.27
2023-08-11T04:34:06.464Z,14.28
2023-08-11T04:34:38.921Z,14.29
2023-08-11T04:35:11.072Z,14.28
2023-08-11T04:35:43.025Z,14.33
2023-08-11T04:36:14.936Z,14.32
2023-08-11T04:36:47.490Z,14.32
2023-08-11T04:37:19.759Z,14.34
2023-08-11T04:37:51.737Z,14.34
2023-08-11T04:38:23.764Z,14.34
2023-08-11T04:38:56.651Z,14.36
2023-08-11T04:39:28.624Z,14.42
2023-08-11T04:40:00.691Z,14.43
2023-08-11T04:40:32.905Z,14.42
2023-08-11T04:41:04.813Z,14.43
2023-08-11T04:41:38.147Z,14.46
2023-08-11T04:42:10.227Z,14.48
2023-08-11T04:42:42.498Z,14.48
2023-08-11T04:43:14.487Z,14.49
2023-08-11T04:43:46.441Z,14.52
2023-08-11T04:44:18.393Z,14.52
2023-08-11T04:44:50.329Z,14.55
2023-08-11T04:45:23.284Z,14.56
2023-08-11T04:45:55.791Z,14.58
2023-08-11T04:46:28.267Z,14.58
2023-08-11T04:47:00.481Z,14.61
2023-08-11T04:47:32.491Z,14.63
2023-08-11T04:48:04.686Z,14.64
2023-08-11T04:48:36.980Z,14.65
2023-08-11T04:49:08.948Z,14.69
2023-08-11T04:49:40.867Z,14.75
2023-08-11T04:50:13.214Z,14.74
2023-08-11T04:50:52.457Z,14.76
2023-08-11T04:51:24.368Z,14.74
2023-08-11T04:51:56.274Z,14.75
2023-08-11T04:52:28.474Z,14.79
2023-08-11T04:53:00.454Z,14.79
2023-08-11T04:53:32.459Z,14.81
2023-08-11T04:54:04.632Z,14.84
2023-08-11T04:54:36.528Z,14.83
2023-08-11T04:55:09.039Z,14.85
2023-08-11T04:55:41.192Z,14.91
2023-08-11T04:56:13.484Z,14.91
2023-08-11T04:56:45.392Z,14.90
2023-08-11T04:57:17.321Z,14.91
2023-08-11T04:57:49.523Z,14.92
2023-08-11T04:58:21.446Z,14.96
2023-08-11T04:58:54.858Z,14.94
2023-08-11T04:59:26.785Z,14.97
2023-08-11T04:59:58.690Z,14.97
2023-08-11T05:00:30.842Z,15.01
2023-08-11T05:01:05.104Z,15.01
2023-08-11T05:01:37.054Z,15.03
2023-08-11T05:02:09.377Z,15.05
2023-08-11T05:02:43.248Z,15.07
2023-08-11T05:03:15.382Z,15.10
2023-08-11T05:03:47.375Z,15.12
2023-08-11T05:04:19.367Z,15.15
2023-08-11T05:04:51.427Z,15.17
2023-08-11T05:05:23.360Z,15.19
2023-08-11T05:05:55.330Z,15.19
2023-08-11T05:06:27.280Z,15.19
2023-08-11T05:06:59.180Z,15.20
2023-08-11T05:07:31.137Z,15.21
2023-08-11T05:08:03.476Z,15.24
2023-08-11T05:08:35.387Z,15.28
2023-08-11T05:09:07.550Z,15.29
2023-08-11T05:09:39.605Z,15.29
2023-08-11T05:10:13.603Z,15.32
2023-08-11T05:10:45.532Z,15.31
2023-08-11T05:11:17.460Z,15.33
2023-08-11T05:11:49.385Z,15.33
2023-08-11T05:12:21.295Z,15.39
2023-08-11T05:12:53.189Z,15.42
2023-08-11T05:13:25.154Z,15.44
2023-08-11T05:13:57.225Z,15.43
2023-08-11T05:14:29.136Z,15.44
2023-08-11T05:15:01.049Z,15.46
2023-08-11T05:15:32.959Z,15.45
2023-08-11T05:16:05.034Z,15.49
2023-08-11T05:16:37.061Z,15.53
2023-08-11T05:17:09.401Z,15.54
2023-08-11T05:17:41.516Z,15.56
2023-08-11T05:18:13.504Z,15.55
2023-08-11T05:18:45.427Z,15.58
2023-08-11T05:19:17.343Z,15.62
2023-08-11T05:19:49.292Z,15.65
2023-08-11T05:20:22.789Z,15.66
2023-08-11T05:20:54.717Z,15.67
2023-08-11T05:21:26.684Z,15.69
2023-08-11T05:21:58.756Z,15.70
2023-08-11T05:22:30.697Z,15.73
2023-08-11T05:23:02.778Z,15.70
2023-08-11T05:23:34.734Z,15.73
2023-08-11T05:24:07.898Z,15.76
2023-08-11T05:24:41.696Z,15.79
2023-08-11T05:25:13.606Z,15.81
2023-08-11T05:25:46.059Z,15.81
2023-08-11T05:26:18.868Z,15.82
2023-08-11T05:26:50.842Z,15.82
2023-08-11T05:27:22.767Z,15.84
2023-08-11T05:27:54.675Z,15.86
2023-08-11T05:28:26.579Z,15.88
2023-08-11T05:28:58.564Z,15.88
2023-08-11T05:29:30.483Z,15.91
2023-08-11T05:30:02.548Z,15.91
2023-08-11T05:30:34.458Z,15.93
2023-08-11T05:31:07.265Z,15.94
2023-08-11T05:31:39.260Z,15.97
2023-08-11T05:32:11.607Z,15.97
2023-08-11T05:32:44.025Z,16.02
2023-08-11T05:33:16.033Z,16.03
2023-08-11T05:33:47.946Z,16.05
2023-08-11T05:34:19.862Z,16.07
2023-08-11T05:34:52.957Z,16.10
2023-08-11T05:35:25.440Z,16.12
2023-08-11T05:35:57.644Z,16.12
2023-08-11T05:36:29.650Z,16.15
2023-08-11T05:37:01.575Z,16.17
2023-08-11T05:37:33.926Z,16.13
2023-08-11T05:38:06.523Z,16.14
2023-08-11T05:38:39.594Z,16.19
2023-08-11T05:39:11.978Z,16.18
2023-08-11T05:39:43.997Z,16.20
2023-08-11T05:40:17.493Z,16.21
2023-08-11T05:40:50.097Z,16.28
2023-08-11T05:41:22.086Z,16.26
2023-08-11T05:41:54.569Z,16.30
2023-08-11T05:42:26.508Z,16.32
2023-08-11T05:42:58.463Z,16.32
2023-08-11T05:43:30.843Z,16.36
2023-08-11T05:44:02.832Z,16.37
2023-08-11T05:44:34.901Z,16.40
2023-08-11T05:45:08.992Z,16.39
2023-08-11T05:45:40.967Z,16.39
2023-08-11T05:46:12.903Z,16.41
2023-08-11T05:46:44.841Z,16.41
2023-08-11T05:47:16.827Z,16.42
2023-08-11T05:47:48.828Z,16.44
2023-08-11T05:48:20.824Z,16.45
2023-08-11T05:48:52.726Z,16.48
2023-08-11T05:49:24.663Z,16.47
2023-08-11T05:49:56.646Z,16.51
2023-08-11T05:50:28.556Z,16.52
2023-08-11T05:51:00.462Z,16.52
2023-08-11T05:51:32.364Z,16.53
2023-08-11T05:52:04.651Z,16.54
2023-08-11T05:52:36.634Z,16.54
2023-08-11T05:53:08.618Z,16.57
2023-08-11T05:53:41.043Z,16.60
2023-08-11T05:54:13.008Z,16.63
2023-08-11T05:54:44.910Z,16.62
2023-08-11T05:55:16.885Z,16.63
2023-08-11T05:55:48.821Z,16.65
2023-08-11T05:56:20.768Z,16.64
2023-08-11T05:56:54.229Z,16.68
2023-08-11T05:57:26.299Z,16.73
2023-08-11T05:57:58.306Z,16.74
2023-08-11T05:58:30.224Z,16.76
2023-08-11T05:59:02.745Z,16.78
2023-08-11T05:59:34.658Z,16.81
2023-08-11T06:00:07.793Z,16.82
2023-08-11T06:00:39.725Z,16.83
2023-08-11T06:01:11.674Z,16.86
2023-08-11T06:01:43.611Z,16.86
2023-08-11T06:02:15.770Z,16.91
2023-08-11T06:02:47.695Z,16.94
2023-08-11T06:03:19.707Z,16.97
2023-08-11T06:03:52.031Z,16.96
2023-08-11T06:04:24.009Z,16.97
2023-08-11T06:04:55.927Z,16.98
2023-08-11T06:05:28.210Z,16.99
2023-08-11T06:06:05.610Z,17.02
2023-08-11T06:06:38.126Z,17.04
2023-08-11T06:07:10.366Z,17.05
2023-08-11T06:07:49.251Z,17.08
2023-08-11T06:08:29.252Z,17.09
2023-08-11T06:09:01.171Z,17.08
2023-08-11T06:09:33.610Z,17.10
2023-08-11T06:10:05.979Z,17.12
2023-08-11T06:10:37.950Z,17.15
2023-08-11T06:11:09.929Z,17.19
2023-08-11T06:11:41.876Z,17.21
2023-08-11T06:12:13.796Z,17.24
2023-08-11T06:12:45.758Z,17.24
2023-08-11T06:13:17.668Z,17.28
2023-08-11T06:13:49.583Z,17.30
2023-08-11T06:14:21.938Z,17.34
2023-08-11T06:14:53.860Z,17.34
2023-08-11T06:15:25.824Z,17.36
2023-08-11T06:15:57.794Z,17.37
2023-08-11T06:16:29.841Z,17.40
2023-08-11T06:17:01.807Z,17.43
2023-08-11T06:17:33.810Z,17.47
2023-08-11T06:18:06.528Z,17.49
2023-08-11T06:18:38.458Z,17.52
2023-08-11T06:19:10.368Z,17.53
2023-08-11T06:19:42.357Z,17.54
2023-08-11T06:20:18.447Z,17.55
2023-08-11T06:20:58.631Z,17.61
2023-08-11T06:21:30.600Z,17.63
2023-08-11T06:22:03.281Z,17.64
2023-08-11T06:22:35.269Z,17.67
2023-08-11T06:23:07.176Z,17.69
2023-08-11T06:23:39.094Z,17.72
2023-08-11T06:24:10.992Z,17.74
2023-08-11T06:24:42.906Z,17.78
2023-08-11T06:25:17.736Z,17.82
2023-08-11T06:25:50.232Z,17.83
2023-08-11T06:26:22.132Z,17.85
2023-08-11T06:26:54.077Z,17.86
2023-08-11T06:27:26.529Z,17.88
2023-08-11T06:27:58.492Z,17.92
2023-08-11T06:28:30.422Z,17.95
2023-08-11T06:29:02.442Z,17.95
2023-08-11T06:29:34.689Z,17.96
2023-08-11T06:30:08.107Z,17.99
2023-08-11T06:30:40.222Z,18.02
2023-08-11T06:31:12.231Z,18.04
2023-08-11T06:31:44.286Z,18.10
2023-08-11T06:32:16.273Z,18.12
2023-08-11T06:32:48.325Z,18.11
2023-08-11T06:33:21.350Z,18.14
2023-08-11T06:33:53.271Z,18.16
2023-08-11T06:34:25.200Z,18.18
2023-08-11T06:34:57.124Z,18.22
2023-08-11T06:35:29.024Z,18.25
2023-08-11T06:36:00.933Z,18.26
2023-08-11T06:36:32.854Z,18.27
2023-08-11T06:37:04.808Z,18.31
2023-08-11T06:37:36.801Z,18.33
2023-08-11T06:38:09.878Z,18.37
2023-08-11T06:38:41.855Z,18.38
2023-08-11T06:39:13.804Z,18.39
2023-08-11T06:39:46.149Z,18.38
2023-08-11T06:40:18.321Z,18.41
2023-08-11T06:40:51.697Z,18.43
2023-08-11T06:41:23.635Z,18.45
2023-08-11T06:41:55.651Z,18.46
2023-08-11T06:42:27.545Z,18.48
2023-08-11T06:42:59.523Z,18.48
2023-08-11T06:43:31.417Z,18.50
2023-08-11T06:44:03.343Z,18.52
2023-08-11T06:44:35.249Z,18.55
2023-08-11T06:45:07.741Z,18.59
2023-08-11T06:45:39.661Z,18.61
2023-08-11T06:46:11.605Z,18.64
2023-08-11T06:46:43.994Z,18.66
2023-08-11T06:47:15.913Z,18.69
2023-08-11T06:47:47.938Z,18.69
2023-08-11T06:48:19.926Z,18.70
2023-08-11T06:48:51.831Z,18.76
2023-08-11T06:49:23.783Z,18.81
2023-08-11T06:49:55.752Z,18.83
2023-08-11T06:50:28.091Z,18.85
2023-08-11T06:51:00.074Z,18.93
2023-08-11T06:51:32.034Z,18.93
2023-08-11T06:52:04.093Z,18.97
2023-08-11T06:52:37.485Z,18.96
2023-08-11T06:53:10.145Z,18.98
2023-08-11T06:53:42.122Z,19.04
2023-08-11T06:54:14.156Z,19.05
2023-08-11T06:54:46.095Z,19.05
2023-08-11T06:55:18.044Z,19.13
2023-08-11T06:55:49.968Z,19.19
2023-08-11T06:56:21.893Z,19.21
2023-08-11T06:56:53.792Z,19.19
2023-08-11T06:57:25.800Z,19.20
2023-08-11T06:57:57.746Z,19.20
2023-08-11T06:58:29.660Z,19.24
2023-08-11T06:59:01.651Z,19.29
2023-08-11T06:59:33.570Z,19.31
2023-08-11T07:00:08.528Z,19.32
2023-08-11T07:00:40.562Z,19.33
2023-08-11T07:01:12.614Z,19.35
2023-08-11T07:01:44.555Z,19.36
2023-08-11T07:02:16.540Z,19.35
2023-08-11T07:02:48.634Z,19.37
2023-08-11T07:03:20.659Z,19.42